createdAt,value
2022-08-09T00:00:32.088Z,19.9
2022-08-09T00:01:39.894Z,19.8
2022-08-09T00:02:32.387Z,19.8
2022-08-09T00:04:01.161Z,19.8
2022-08-09T00:04:38.501Z,19.9
2022-08-09T00:06:16.718Z,19.7
2022-08-09T00:06:32.292Z,19.5
2022-08-09T00:07:44.401Z,19.4
2022-08-09T00:08:33.158Z,19.6
2022-08-09T00:09:33.105Z,19.7
2022-08-09T00:10:32.511Z,19.7
2022-08-09T00:11:58.575Z,19.8
2022-08-09T00:12:34.682Z,19.8
2022-08-09T00:13:32.757Z,19.8
2022-08-09T00:14:36.265Z,19.8
2022-08-09T00:15:35.736Z,19.7
2022-08-09T00:16:36.544Z,19.7
2022-08-09T00:18:04.897Z,19.7
2022-08-09T00:18:35.127Z,19.7
2022-08-09T00:19:34.017Z,19.7
2022-08-09T00:20:34.101Z,19.6
2022-08-09T00:21:33.469Z,19.7
2022-08-09T00:22:35.185Z,19.7
2022-08-09T00:23:56.837Z,19.7
2022-08-09T00:24:33.137Z,19.6
2022-08-09T00:25:33.355Z,19.6
2022-08-09T00:26:33.624Z,19.6
2022-08-09T00:27:36.325Z,19.5
2022-08-09T00:28:35.219Z,19.4
2022-08-09T00:29:40.036Z,19.4
2022-08-09T00:30:35.017Z,19.4
2022-08-09T00:31:57.274Z,19.4
2022-08-09T00:32:38.563Z,19.4
2022-08-09T00:33:42.610Z,19.4
2022-08-09T00:34:35.775Z,19.4
2022-08-09T00:35:43.156Z,19.3
2022-08-09T00:36:35.856Z,19.2
2022-08-09T00:37:33.667Z,19.2
2022-08-09T00:38:33.686Z,19.1
2022-08-09T00:40:10.040Z,19.1
2022-08-09T00:40:33.954Z,19
2022-08-09T00:44:08.795Z,19.2
2022-08-09T00:44:09.245Z,19
2022-08-09T00:44:09.502Z,19.2
2022-08-09T00:44:34.072Z,19.3
2022-08-09T00:45:36.622Z,19.3
2022-08-09T00:46:56.758Z,19.2
2022-08-09T00:47:35.947Z,19
2022-08-09T00:48:35.896Z,18.9
2022-08-09T00:49:36.722Z,18.9
2022-08-09T00:50:34.122Z,18.9
2022-08-09T00:51:34.176Z,18.9
2022-08-09T00:52:34.559Z,18.9
2022-08-09T00:53:36.206Z,18.8
2022-08-09T00:54:35.491Z,18.8
2022-08-09T00:56:03.501Z,18.9
2022-08-09T00:56:34.290Z,19.1
2022-08-09T00:57:37.589Z,19.1
2022-08-09T00:58:34.872Z,19.1
2022-08-09T00:59:40.847Z,19
2022-08-09T01:00:35.858Z,19.1
2022-08-09T01:01:44.526Z,19.1
2022-08-09T01:02:34.765Z,18.9
2022-08-09T01:03:36.509Z,18.6
2022-08-09T01:04:34.948Z,18.6
2022-08-09T01:05:46.341Z,18.7
2022-08-09T01:06:53.626Z,18.8
2022-08-09T01:07:37.466Z,18.7
2022-08-09T01:08:34.814Z,18.6
2022-08-09T01:09:39.721Z,18.5
2022-08-09T01:10:35.570Z,18.5
2022-08-09T01:11:36.023Z,18.6
2022-08-09T01:12:40.071Z,18.6
2022-08-09T01:13:42.180Z,18.5
2022-08-09T01:14:35.089Z,18.4
2022-08-09T01:15:40.837Z,18.4
2022-08-09T01:16:35.873Z,18.5
2022-08-09T01:17:35.480Z,18.6
2022-08-09T01:18:36.659Z,18.7
2022-08-09T01:19:39.792Z,18.7
2022-08-09T01:20:35.441Z,18.8
2022-08-09T01:21:36.257Z,18.7
2022-08-09T01:22:35.174Z,18.7
2022-08-09T01:24:00.616Z,18.6
2022-08-09T01:24:35.329Z,18.7
2022-08-09T01:25:37.357Z,18.8
2022-08-09T01:26:37.625Z,18.7
2022-08-09T01:27:37.663Z,18.5
2022-08-09T01:28:37.448Z,18.6
2022-08-09T01:29:48.708Z,18.6
2022-08-09T01:30:51.191Z,18.7
2022-08-09T01:32:29.282Z,18.7
2022-08-09T01:32:35.992Z,18.7
2022-08-09T01:33:35.561Z,18.6
2022-08-09T01:34:35.605Z,18.5
2022-08-09T01:35:38.164Z,18.5
2022-08-09T01:36:36.014Z,18.3
2022-08-09T01:37:43.071Z,18.4
2022-08-09T01:38:40.771Z,18.4
2022-08-09T01:39:35.974Z,18.5
2022-08-09T01:40:37.592Z,18.5
2022-08-09T01:41:35.946Z,18.5
2022-08-09T01:42:37.774Z,18.6
2022-08-09T01:43:41.733Z,18.5
2022-08-09T01:44:38.501Z,18.3
2022-08-09T01:45:44.935Z,18.4
2022-08-09T01:46:47.124Z,18.4
2022-08-09T01:47:44.676Z,18.4
2022-08-09T01:48:36.263Z,18.4
2022-08-09T01:49:38.958Z,18.4
2022-08-09T01:50:41.848Z,18.4
2022-08-09T01:51:37.434Z,18.4
2022-08-09T01:52:36.426Z,18.5
2022-08-09T01:53:41.768Z,18.4
2022-08-09T01:54:39.609Z,18.3
2022-08-09T01:55:38.745Z,18.3
2022-08-09T01:56:36.614Z,18.4
2022-08-09T01:58:05.516Z,18.4
2022-08-09T02:01:19.412Z,18.5
2022-08-09T02:01:58.764Z,18.5
2022-08-09T02:02:04.522Z,18.4
2022-08-09T02:02:43.750Z,18.4
2022-08-09T02:03:38.106Z,18.4
2022-08-09T02:05:20.496Z,18.4
2022-08-09T02:05:37.785Z,18.3
2022-08-09T02:06:45.412Z,18.4
2022-08-09T02:08:36.137Z,18.5
2022-08-09T02:08:40.878Z,18.5
2022-08-09T02:09:41.750Z,18.5
2022-08-09T02:10:37.144Z,18.3
2022-08-09T02:11:42.969Z,18.3
2022-08-09T02:12:39.252Z,18.3
2022-08-09T02:13:40.199Z,18.3
2022-08-09T02:14:37.773Z,18.2
2022-08-09T02:15:49.175Z,18.2
2022-08-09T02:16:52.929Z,18.3
2022-08-09T02:17:59.585Z,18.2
2022-08-09T02:18:38.420Z,18.2
2022-08-09T02:19:39.003Z,18.2
2022-08-09T02:20:37.427Z,18.2
2022-08-09T02:21:38.435Z,18.2
2022-08-09T02:22:37.686Z,18.1
2022-08-09T02:23:39.581Z,18.1
2022-08-09T02:24:38.346Z,18.1
2022-08-09T02:25:42.110Z,18.1
2022-08-09T02:26:37.993Z,18.1
2022-08-09T02:27:43.290Z,18
2022-08-09T02:28:39.962Z,17.9
2022-08-09T02:29:38.428Z,17.9
2022-08-09T02:30:41.672Z,18
2022-08-09T02:31:38.640Z,18
2022-08-09T02:32:40.748Z,18
2022-08-09T02:33:58.533Z,18
2022-08-09T02:34:51.686Z,18
2022-08-09T02:35:46.533Z,17.9
2022-08-09T02:36:41.864Z,17.9
2022-08-09T02:37:37.986Z,17.9
2022-08-09T02:38:38.083Z,17.8
2022-08-09T02:39:39.918Z,17.8
2022-08-09T02:40:38.145Z,17.9
2022-08-09T02:41:38.936Z,17.8
2022-08-09T02:42:39.653Z,17.6
2022-08-09T02:43:42.728Z,17.6
2022-08-09T02:44:40.072Z,17.6
2022-08-09T02:45:43.594Z,17.6
2022-08-09T02:46:43.329Z,17.6
2022-08-09T02:47:46.536Z,17.6
2022-08-09T02:48:40.531Z,17.5
2022-08-09T02:49:41.260Z,17.4
2022-08-09T02:50:38.570Z,17.4
2022-08-09T02:51:40.355Z,17.5
2022-08-09T02:52:40.588Z,17.6
2022-08-09T02:53:38.747Z,17.7
2022-08-09T02:54:51.403Z,17.7
2022-08-09T02:55:46.976Z,17.7
2022-08-09T02:56:39.187Z,17.6
2022-08-09T02:57:40.399Z,17.6
2022-08-09T02:58:39.378Z,17.7
2022-08-09T02:59:39.113Z,17.7
2022-08-09T03:00:47.947Z,17.7
2022-08-09T03:01:42.887Z,17.8
2022-08-09T03:02:46.417Z,17.8
2022-08-09T03:04:13.510Z,17.8
2022-08-09T03:04:40.508Z,17.7
2022-08-09T03:05:39.713Z,17.7
2022-08-09T03:06:39.448Z,17.7
2022-08-09T03:07:39.594Z,17.8
2022-08-09T03:08:40.645Z,17.7
2022-08-09T03:09:42.735Z,17.7
2022-08-09T03:10:42.058Z,17.7
2022-08-09T03:12:05.026Z,17.7
2022-08-09T03:12:40.258Z,17.6
2022-08-09T03:13:43.582Z,17.6
2022-08-09T03:14:41.245Z,17.7
2022-08-09T03:16:05.018Z,17.7
2022-08-09T03:16:44.721Z,17.8
2022-08-09T03:17:44.770Z,17.7
2022-08-09T03:18:40.019Z,17.7
2022-08-09T03:19:52.928Z,17.7
2022-08-09T03:20:41.001Z,17.8
2022-08-09T03:21:40.044Z,17.7
2022-08-09T03:22:41.631Z,17.8
2022-08-09T03:23:40.323Z,17.7
2022-08-09T03:24:42.329Z,17.6
2022-08-09T03:25:57.133Z,17.6
2022-08-09T03:26:42.653Z,17.5
2022-08-09T03:27:44.952Z,17.5
2022-08-09T03:28:40.240Z,17.4
2022-08-09T03:29:57.441Z,17.4
2022-08-09T03:30:43.379Z,17.4
2022-08-09T03:31:42.294Z,17.4
2022-08-09T03:32:40.352Z,17.4
2022-08-09T03:33:53.018Z,17.5
2022-08-09T03:34:40.439Z,17.3
2022-08-09T03:35:44.651Z,17
2022-08-09T03:36:58.443Z,17
2022-08-09T03:38:28.624Z,16.9
2022-08-09T03:38:45.026Z,17
2022-08-09T03:39:40.944Z,17.1
2022-08-09T03:40:50.151Z,17.1
2022-08-09T03:41:44.919Z,17.1
2022-08-09T03:42:54.728Z,17
2022-08-09T03:43:41.479Z,16.9
2022-08-09T03:44:45.990Z,17
2022-08-09T03:46:03.807Z,17
2022-08-09T03:46:55.812Z,17.1
2022-08-09T03:47:42.056Z,16.9
2022-08-09T03:48:51.157Z,16.8
2022-08-09T03:49:41.134Z,16.6
2022-08-09T03:50:41.109Z,16.4
2022-08-09T03:51:44.332Z,16.4
2022-08-09T03:52:43.402Z,16.3
2022-08-09T03:53:41.034Z,16.4
2022-08-09T03:54:41.385Z,16.4
2022-08-09T03:55:51.130Z,16.4
2022-08-09T03:56:44.347Z,16.3
2022-08-09T03:57:44.555Z,16.2
2022-08-09T03:58:41.351Z,16.3
2022-08-09T03:59:43.433Z,16.5
2022-08-09T04:00:41.632Z,16.5
2022-08-09T04:01:41.599Z,16.5
2022-08-09T04:02:44.842Z,16.6
2022-08-09T04:03:46.034Z,16.5
2022-08-09T04:05:01.296Z,16.5
2022-08-09T04:05:51.650Z,16.5
2022-08-09T04:07:18.140Z,16.7
2022-08-09T04:07:48.009Z,16.7
2022-08-09T04:08:50.587Z,16.8
2022-08-09T04:09:48.469Z,16.9
2022-08-09T04:10:42.658Z,17
2022-08-09T04:11:42.052Z,17
2022-08-09T04:12:53.969Z,17.1
2022-08-09T04:14:38.023Z,17
2022-08-09T04:14:54.313Z,17
2022-08-09T04:16:19.123Z,17
2022-08-09T04:16:43.138Z,17
2022-08-09T04:17:44.275Z,17.1
2022-08-09T04:18:43.981Z,17.1
2022-08-09T04:19:43.284Z,17.1
2022-08-09T04:20:43.580Z,17.1
2022-08-09T04:21:42.966Z,17.1
2022-08-09T04:22:44.176Z,17.1
2022-08-09T04:23:52.397Z,17.1
2022-08-09T04:24:43.041Z,17.1
2022-08-09T04:25:42.609Z,17.1
2022-08-09T04:26:44.105Z,17.1
2022-08-09T04:27:46.840Z,17.1
2022-08-09T04:28:48.044Z,17.1
2022-08-09T04:29:49.765Z,17
2022-08-09T04:31:54.204Z,17.3
2022-08-09T04:31:57.894Z,17.1
2022-08-09T04:32:45.973Z,17.3
2022-08-09T04:33:47.787Z,16.9
2022-08-09T04:34:47.810Z,16.7
2022-08-09T04:35:45.186Z,16.8
2022-08-09T04:36:50.176Z,16.8
2022-08-09T04:37:46.124Z,16.7
2022-08-09T04:38:43.168Z,16.7
2022-08-09T04:39:43.109Z,16.7
2022-08-09T04:40:48.188Z,16.8
2022-08-09T04:41:43.514Z,16.8
2022-08-09T04:42:43.166Z,16.9
2022-08-09T04:43:54.138Z,16.9
2022-08-09T04:44:49.227Z,16.9
2022-08-09T04:45:53.435Z,16.9
2022-08-09T04:46:57.931Z,17
2022-08-09T04:47:45.323Z,17
2022-08-09T04:48:50.297Z,17.2
2022-08-09T04:49:54.987Z,17.3
2022-08-09T04:50:43.477Z,17.2
2022-08-09T04:51:43.429Z,17.3
2022-08-09T04:52:44.614Z,17.3
2022-08-09T04:53:43.462Z,17.3
2022-08-09T04:54:43.552Z,17.4
2022-08-09T04:55:58.574Z,17.4
2022-08-09T04:56:43.675Z,17.4
2022-08-09T04:57:53.784Z,17.5
2022-08-09T04:58:43.903Z,17.5
2022-08-09T04:59:43.679Z,17.4
2022-08-09T05:00:43.922Z,17.5
2022-08-09T05:01:43.731Z,17.6
2022-08-09T05:02:43.727Z,17.5
2022-08-09T05:03:44.113Z,17.4
2022-08-09T05:04:44.833Z,17
2022-08-09T05:05:51.723Z,16.9
2022-08-09T05:06:44.217Z,17
2022-08-09T05:07:43.909Z,16.8
2022-08-09T05:08:47.635Z,16.7
2022-08-09T05:09:45.586Z,16.5
2022-08-09T05:10:44.397Z,16.7
2022-08-09T05:11:44.598Z,16.7
2022-08-09T05:12:44.083Z,16.8
2022-08-09T05:13:44.182Z,17
2022-08-09T05:14:49.364Z,17.2
2022-08-09T05:15:47.851Z,17.3
2022-08-09T05:16:58.672Z,17.4
2022-08-09T05:18:40.022Z,17.5
2022-08-09T05:18:57.845Z,17.5
2022-08-09T05:19:46.093Z,17.6
2022-08-09T05:20:44.681Z,17.6
2022-08-09T05:21:55.178Z,17.7
2022-08-09T05:23:51.455Z,17.8
2022-08-09T05:23:58.675Z,17.7
2022-08-09T05:24:44.847Z,17.7
2022-08-09T05:25:45.970Z,17.8
2022-08-09T05:26:45.870Z,17.5
2022-08-09T05:27:50.950Z,17.3
2022-08-09T05:28:45.443Z,17.2
2022-08-09T05:29:45.077Z,17.1
2022-08-09T05:30:47.847Z,17
2022-08-09T05:31:47.489Z,17
2022-08-09T05:32:45.173Z,16.9
2022-08-09T05:33:45.188Z,16.8
2022-08-09T05:34:45.673Z,16.8
2022-08-09T05:35:50.916Z,17
2022-08-09T05:36:46.985Z,17.1
2022-08-09T05:37:46.422Z,17
2022-08-09T05:38:46.101Z,17
2022-08-09T05:39:48.650Z,17.1
2022-08-09T05:40:50.443Z,17
2022-08-09T05:41:47.819Z,17
2022-08-09T05:42:46.576Z,17
2022-08-09T05:43:48.962Z,17.1
2022-08-09T05:44:47.659Z,17
2022-08-09T05:45:52.843Z,17.1
2022-08-09T05:46:50.671Z,17.2
2022-08-09T05:47:51.903Z,17.1
2022-08-09T05:48:58.491Z,17.2
2022-08-09T05:50:15.592Z,17.3
2022-08-09T05:51:10.337Z,17.4
2022-08-09T05:51:48.085Z,17.3
2022-08-09T05:52:52.271Z,17.2
2022-08-09T05:53:51.806Z,17.3
2022-08-09T05:54:50.819Z,17.4
2022-08-09T05:55:51.262Z,17.5
2022-08-09T05:56:54.790Z,17.5
2022-08-09T05:57:56.301Z,17.7
2022-08-09T05:58:53.753Z,17.7
2022-08-09T05:59:51.190Z,17.6
2022-08-09T06:00:51.439Z,17.7
2022-08-09T06:01:46.764Z,17.7
2022-08-09T06:02:47.932Z,17.7
2022-08-09T06:03:54.580Z,17.8
2022-08-09T06:04:46.580Z,17.8
2022-08-09T06:05:50.876Z,17.9
2022-08-09T06:06:53.498Z,18
2022-08-09T06:08:05.183Z,18
2022-08-09T06:08:52.601Z,17.9
2022-08-09T06:09:55.368Z,17.7
2022-08-09T06:11:19.621Z,17.8
2022-08-09T06:13:47.355Z,17.9
2022-08-09T06:14:58.591Z,17.9
2022-08-09T06:15:00.820Z,18
2022-08-09T06:15:51.236Z,18
2022-08-09T06:16:52.287Z,18.1
2022-08-09T06:17:47.991Z,18.1
2022-08-09T06:18:51.747Z,18
2022-08-09T06:19:57.059Z,18
2022-08-09T06:21:26.943Z,18.1
2022-08-09T06:21:58.567Z,18.2
2022-08-09T06:22:52.013Z,18.4
2022-08-09T06:23:55.987Z,18.4
2022-08-09T06:24:47.365Z,18.4
2022-08-09T06:25:47.361Z,18.4
2022-08-09T06:26:54.190Z,18.6
2022-08-09T06:27:51.578Z,18.6
2022-08-09T06:28:47.463Z,18.7
2022-08-09T06:29:47.807Z,18.8
2022-08-09T06:30:47.347Z,18.8
2022-08-09T06:32:09.161Z,18.8
2022-08-09T06:32:53.751Z,18.8
2022-08-09T06:33:47.803Z,18.8
2022-08-09T06:34:51.340Z,18.8
2022-08-09T06:35:56.683Z,18.7
2022-08-09T06:36:47.967Z,18.6
2022-08-09T06:37:50.906Z,18.7
2022-08-09T06:38:50.076Z,18.6
2022-08-09T06:39:48.946Z,18.8
2022-08-09T06:40:47.956Z,18.8
2022-08-09T06:42:00.509Z,18.7
2022-08-09T06:42:53.255Z,18.8
2022-08-09T06:43:48.212Z,18.9
2022-08-09T06:44:51.954Z,18.9
2022-08-09T06:46:05.621Z,18.9
2022-08-09T06:46:48.087Z,18.9
2022-08-09T06:47:48.309Z,19.1
2022-08-09T06:48:48.084Z,19.2
2022-08-09T06:50:12.562Z,19.2
2022-08-09T06:50:48.475Z,19.2
2022-08-09T06:51:48.232Z,19.3
2022-08-09T06:52:58.754Z,19.3
2022-08-09T06:53:49.814Z,19.3
2022-08-09T06:54:48.255Z,19.3
2022-08-09T06:55:48.479Z,19.2
2022-08-09T06:56:48.374Z,19.3
2022-08-09T06:58:02.410Z,19.3
2022-08-09T07:00:48.023Z,19.5
2022-08-09T07:00:48.123Z,19.4
2022-08-09T07:00:58.173Z,19.5
2022-08-09T07:01:53.931Z,19.6
2022-08-09T07:02:48.610Z,19.7
2022-08-09T07:04:00.718Z,19.8
2022-08-09T07:04:48.609Z,19.9
2022-08-09T07:06:02.255Z,19.8
2022-08-09T07:06:53.046Z,19.9
2022-08-09T07:07:59.371Z,20
2022-08-09T07:08:49.631Z,20
2022-08-09T07:09:53.900Z,20.1
2022-08-09T07:10:48.839Z,20.3
2022-08-09T07:11:52.423Z,20.3
2022-08-09T07:12:57.339Z,20
2022-08-09T07:14:04.669Z,20.1
2022-08-09T07:14:50.665Z,20.3
2022-08-09T07:15:53.526Z,20.4
2022-08-09T07:16:53.598Z,20.5
2022-08-09T07:17:52.777Z,20.6
2022-08-09T07:18:49.950Z,20.6
2022-08-09T07:19:50.541Z,20.5
2022-08-09T07:20:49.184Z,20.5
2022-08-09T07:21:50.270Z,20.5
2022-08-09T07:22:52.727Z,20.5
2022-08-09T07:23:56.821Z,20.6
2022-08-09T07:24:49.723Z,20.7
2022-08-09T07:25:52.024Z,20.6
2022-08-09T07:26:50.757Z,20.8
2022-08-09T07:27:53.081Z,20.9
2022-08-09T07:29:01.508Z,20.9
2022-08-09T07:29:49.541Z,21
2022-08-09T07:30:49.569Z,21
2022-08-09T07:31:49.705Z,21
2022-08-09T07:32:51.431Z,21
2022-08-09T07:33:52.375Z,21
2022-08-09T07:34:49.747Z,21.1
2022-08-09T07:35:53.283Z,21.1
2022-08-09T07:36:49.867Z,21.1
2022-08-09T07:37:50.226Z,21
2022-08-09T07:38:56.711Z,20.8
2022-08-09T07:39:50.445Z,21
2022-08-09T07:40:54.026Z,21.2
2022-08-09T07:41:50.179Z,21.2
2022-08-09T07:42:55.638Z,21.4
2022-08-09T07:43:55.786Z,21.6
2022-08-09T07:44:53.414Z,21.5
2022-08-09T07:45:51.722Z,21.6
2022-08-09T07:46:57.902Z,21.7
2022-08-09T07:48:01.062Z,21.8
2022-08-09T07:48:52.942Z,21.7
2022-08-09T07:49:52.474Z,21.7
2022-08-09T07:50:52.907Z,21.7
2022-08-09T07:52:04.185Z,21.5
2022-08-09T07:52:50.717Z,21.6
2022-08-09T07:54:06.148Z,21.6
2022-08-09T07:54:51.388Z,21.5
2022-08-09T07:56:03.023Z,21.7
2022-08-09T07:56:51.087Z,21.9
2022-08-09T07:57:50.961Z,22
2022-08-09T07:58:50.943Z,22.2
2022-08-09T08:00:02.821Z,22.4
2022-08-09T08:00:55.446Z,22.4
2022-08-09T08:01:52.982Z,22.4
2022-08-09T08:02:51.298Z,22.3
2022-08-09T08:03:51.185Z,22.1
2022-08-09T08:04:53.645Z,22.3
2022-08-09T08:06:01.159Z,22.3
2022-08-09T08:06:55.673Z,22.3
2022-08-09T08:08:44.719Z,22.4
2022-08-09T08:09:18.289Z,22.5
2022-08-09T08:09:54.870Z,22.6
2022-08-09T08:12:07.851Z,22.7
2022-08-09T08:12:09.524Z,22.3
2022-08-09T08:12:51.394Z,22.6
2022-08-09T08:13:56.443Z,23
2022-08-09T08:14:51.462Z,23.3
2022-08-09T08:15:51.828Z,23.3
2022-08-09T08:17:01.182Z,23.2
2022-08-09T08:17:52.816Z,23.3
2022-08-09T08:18:52.051Z,23.2
2022-08-09T08:19:51.685Z,23.1
2022-08-09T08:20:56.781Z,23.2
2022-08-09T08:21:52.828Z,23.2
2022-08-09T08:22:52.082Z,23
2022-08-09T08:23:54.877Z,23.2
2022-08-09T08:24:52.062Z,23.1
2022-08-09T08:25:54.362Z,23
2022-08-09T08:26:55.388Z,23.2
2022-08-09T08:27:51.968Z,23.3
2022-08-09T08:28:51.993Z,23.2
2022-08-09T08:29:52.531Z,23.3
2022-08-09T08:30:53.508Z,23.6
2022-08-09T08:32:04.070Z,23.5
2022-08-09T08:32:53.779Z,23.6
2022-08-09T08:33:57.178Z,23.3
2022-08-09T08:34:55.245Z,23.4
2022-08-09T08:35:53.282Z,23.7
2022-08-09T08:36:52.526Z,23.8
2022-08-09T08:37:54.762Z,24
2022-08-09T08:38:52.381Z,23.9
2022-08-09T08:39:55.063Z,23.8
2022-08-09T08:40:54.157Z,23.8
2022-08-09T08:41:52.684Z,23.6
2022-08-09T08:42:52.603Z,23.7
2022-08-09T08:43:52.571Z,23.6
2022-08-09T08:44:52.607Z,23.8
2022-08-09T08:45:53.741Z,23.8
2022-08-09T08:47:00.169Z,23.9
2022-08-09T08:47:52.693Z,23.9
2022-08-09T08:48:53.718Z,23.9
2022-08-09T08:49:54.459Z,23.9
2022-08-09T08:50:55.641Z,23.9
2022-08-09T08:52:00.076Z,24
2022-08-09T08:52:58.714Z,24.1
2022-08-09T08:54:04.041Z,24.2
2022-08-09T08:54:53.371Z,24.2
2022-08-09T08:55:53.425Z,24.2
2022-08-09T08:56:55.036Z,24.3
2022-08-09T08:57:56.990Z,24.4
2022-08-09T08:58:53.743Z,24.7
2022-08-09T08:59:57.293Z,24.7
2022-08-09T09:00:56.982Z,24.4
2022-08-09T09:01:57.243Z,24.5
2022-08-09T09:02:55.760Z,24.6
2022-08-09T09:03:53.623Z,24.4
2022-08-09T09:04:54.408Z,24.4
2022-08-09T09:05:59.264Z,24.3
2022-08-09T09:06:54.430Z,24.4
2022-08-09T09:07:53.780Z,24.3
2022-08-09T09:08:59.544Z,24.5
2022-08-09T09:09:58.884Z,24.4
2022-08-09T09:10:54.865Z,24.5
2022-08-09T09:11:54.074Z,24.7
2022-08-09T09:12:53.930Z,24.8
2022-08-09T09:13:56.015Z,24.6
2022-08-09T09:14:54.267Z,24.5
2022-08-09T09:15:53.973Z,24.8
2022-08-09T09:16:54.012Z,24.9
2022-08-09T09:17:55.499Z,25.1
2022-08-09T09:19:06.661Z,25.1
2022-08-09T09:19:54.694Z,25.2
2022-08-09T09:21:05.011Z,25.3
2022-08-09T09:21:59.500Z,25.3
2022-08-09T09:22:55.501Z,25.2
2022-08-09T09:23:57.562Z,25
2022-08-09T09:24:57.804Z,25.2
2022-08-09T09:26:00.825Z,25.5
2022-08-09T09:26:55.065Z,25.7
2022-08-09T09:28:03.341Z,25.6
2022-08-09T09:29:03.178Z,25.5
2022-08-09T09:30:08.680Z,25.6
2022-08-09T09:30:57.261Z,25.7
2022-08-09T09:32:04.300Z,25.7
2022-08-09T09:34:18.237Z,25.6
2022-08-09T09:34:54.770Z,25.6
2022-08-09T09:36:01.261Z,25.6
2022-08-09T09:36:57.900Z,25.8
2022-08-09T09:37:55.182Z,25.7
2022-08-09T09:38:55.546Z,25.7
2022-08-09T09:40:17.662Z,25.8
2022-08-09T09:41:01.519Z,25.8
2022-08-09T09:42:01.575Z,26.1
2022-08-09T09:42:58.883Z,26.2
2022-08-09T09:44:10.395Z,26.3
2022-08-09T09:45:09.287Z,26
2022-08-09T09:45:57.285Z,26.2
2022-08-09T09:46:55.517Z,26.5
2022-08-09T09:48:25.579Z,26.3
2022-08-09T09:48:55.513Z,26.2
2022-08-09T09:50:06.881Z,26.3
2022-08-09T09:51:04.485Z,26.5
2022-08-09T09:52:00.427Z,26.5
2022-08-09T09:52:56.025Z,26.4
2022-08-09T09:54:20.582Z,26.3
2022-08-09T09:54:55.914Z,26.3
2022-08-09T09:55:57.956Z,26.5
2022-08-09T09:58:02.057Z,26.5
2022-08-09T09:58:02.174Z,26.5
2022-08-09T09:58:55.649Z,26.5
2022-08-09T09:59:58.297Z,26.5
2022-08-09T10:01:00.225Z,26.6
2022-08-09T10:01:55.954Z,26.8
2022-08-09T10:03:13.931Z,27.1
2022-08-09T10:03:56.994Z,27
2022-08-09T10:04:56.111Z,27
2022-08-09T10:06:01.543Z,27
2022-08-09T10:06:56.270Z,26.9
2022-08-09T10:08:01.006Z,26.8
2022-08-09T10:08:57.786Z,26.8
2022-08-09T10:10:05.022Z,27
2022-08-09T10:10:59.624Z,27
2022-08-09T10:12:11.564Z,27
2022-08-09T10:12:57.961Z,27
2022-08-09T10:13:56.572Z,27
2022-08-09T10:15:17.343Z,27.1
2022-08-09T10:16:09.731Z,27.3
2022-08-09T10:17:01.171Z,27.3
2022-08-09T10:17:59.414Z,27.5
2022-08-09T10:18:59.852Z,27.6
2022-08-09T10:20:04.397Z,27.5
2022-08-09T10:21:20.836Z,27.6
2022-08-09T10:22:35.206Z,27.7
2022-08-09T10:23:00.488Z,27.7
2022-08-09T10:23:57.329Z,27.7
2022-08-09T10:25:11.480Z,27.6
2022-08-09T10:26:04.800Z,27.5
2022-08-09T10:26:58.472Z,27.8
2022-08-09T10:28:14.126Z,28
2022-08-09T10:37:04.806Z,28.2
2022-08-09T10:37:07.040Z,27.8
2022-08-09T10:38:01.123Z,27.6
2022-08-09T10:38:59.855Z,27.6
2022-08-09T10:40:33.549Z,28
2022-08-09T10:41:09.109Z,28
2022-08-09T10:42:12.181Z,28.2
2022-08-09T10:43:03.132Z,28.5
2022-08-09T10:44:27.464Z,28.8
2022-08-09T10:44:57.671Z,29
2022-08-09T10:46:09.964Z,28.8
2022-08-09T10:47:00.811Z,28.7
2022-08-09T10:48:13.612Z,28.7
2022-08-09T10:49:16.072Z,28.8
2022-08-09T10:50:00.992Z,28.8
2022-08-09T10:51:03.374Z,28.8
2022-08-09T10:52:29.983Z,28.7
2022-08-09T10:52:58.226Z,28.5
2022-08-09T10:53:58.710Z,28.5
2022-08-09T10:55:02.087Z,28.6
2022-08-09T10:56:10.089Z,28.8
2022-08-09T10:56:58.031Z,28.8
2022-08-09T10:58:38.807Z,28.8
2022-08-09T10:59:11.089Z,28.9
2022-08-09T10:59:58.611Z,28.6
2022-08-09T11:03:03.504Z,28.7
2022-08-09T11:03:07.110Z,29.1
2022-08-09T11:03:15.407Z,29.1
2022-08-09T11:04:55.747Z,29
2022-08-09T11:05:35.566Z,28.7
2022-08-09T11:05:59.902Z,28.9
2022-08-09T11:07:11.382Z,28.9
2022-08-09T11:08:30.021Z,28.7
2022-08-09T11:09:15.693Z,28.9
2022-08-09T11:10:04.618Z,28.9
2022-08-09T11:13:04.924Z,29.2
2022-08-09T11:13:05.365Z,29.5
2022-08-09T11:13:58.797Z,29.6
2022-08-09T11:15:01.673Z,29.5
2022-08-09T11:16:04.631Z,29.4
2022-08-09T11:17:00.200Z,29.3
2022-08-09T11:18:03.172Z,29.4
2022-08-09T11:18:59.231Z,29.3
2022-08-09T11:20:07.740Z,29.3
2022-08-09T11:21:01.268Z,29.5
2022-08-09T11:22:05.650Z,29.7
2022-08-09T11:22:59.322Z,29.7
2022-08-09T11:24:01.046Z,29.5
2022-08-09T11:25:01.156Z,29.7
2022-08-09T11:26:01.742Z,29.7
2022-08-09T11:26:59.433Z,29.7
2022-08-09T11:28:05.757Z,30
2022-08-09T11:29:06.039Z,29.9
2022-08-09T11:30:05.344Z,29.7
2022-08-09T11:31:00.140Z,29.7
2022-08-09T11:32:01.533Z,29.6
2022-08-09T11:32:59.854Z,29.6
2022-08-09T11:34:00.647Z,29.5
2022-08-09T11:35:06.082Z,29.6
2022-08-09T11:36:00.279Z,29.6
2022-08-09T11:37:03.032Z,29.6
2022-08-09T11:38:01.449Z,29.5
2022-08-09T11:39:00.813Z,29.7
2022-08-09T11:39:59.816Z,29.9
2022-08-09T11:40:59.843Z,29.9
2022-08-09T11:41:59.870Z,30
2022-08-09T11:43:16.677Z,30
2022-08-09T11:44:27.434Z,29.6
2022-08-09T11:45:37.993Z,29.6
2022-08-09T11:46:04.963Z,29.6
2022-08-09T11:47:01.311Z,29.5
2022-08-09T11:48:03.574Z,29.4
2022-08-09T11:49:05.054Z,29.5
2022-08-09T11:50:01.830Z,29.5
2022-08-09T11:51:38.192Z,29.8
2022-08-09T11:52:57.186Z,29.9
2022-08-09T11:53:16.832Z,29.8
2022-08-09T11:54:03.464Z,29.6
2022-08-09T11:55:01.565Z,29.8
2022-08-09T11:56:02.122Z,29.8
2022-08-09T11:57:01.090Z,30.3
2022-08-09T11:58:02.118Z,30.5
2022-08-09T11:59:00.767Z,30.5
2022-08-09T12:00:02.873Z,30.2
2022-08-09T12:01:03.342Z,30
2022-08-09T12:02:18.516Z,29.9
2022-08-09T12:03:00.567Z,30.1
2022-08-09T12:04:01.232Z,30.2
2022-08-09T12:05:03.428Z,30
2022-08-09T12:06:02.131Z,30.1
2022-08-09T12:07:02.979Z,30.3
2022-08-09T12:08:00.882Z,30.5
2022-08-09T12:09:01.169Z,30.3
2022-08-09T12:10:02.256Z,30.4
2022-08-09T12:11:00.867Z,30.1
2022-08-09T12:12:03.983Z,30.1
2022-08-09T12:13:03.545Z,30.2
2022-08-09T12:14:06.775Z,30
2022-08-09T12:15:04.506Z,30.1
2022-08-09T12:16:00.949Z,30.3
2022-08-09T12:17:02.247Z,30.5
2022-08-09T12:18:01.209Z,30.2
2022-08-09T12:19:02.186Z,30.3
2022-08-09T12:20:01.080Z,30.5
2022-08-09T12:21:02.430Z,30.5
2022-08-09T12:22:01.117Z,30.5
2022-08-09T12:23:01.269Z,30.4
2022-08-09T12:24:06.610Z,30.5
2022-08-09T12:25:01.397Z,30.4
2022-08-09T12:26:01.582Z,30.8
2022-08-09T12:28:57.803Z,31
2022-08-09T12:29:00.642Z,31.2
2022-08-09T12:29:12.422Z,31.3
2022-08-09T12:30:35.919Z,31.1
2022-08-09T12:31:02.179Z,31
2022-08-09T12:32:03.472Z,31.1
2022-08-09T12:33:01.974Z,31.3
2022-08-09T12:34:01.989Z,31
2022-08-09T12:35:04.659Z,30.9
2022-08-09T12:36:01.971Z,30.8
2022-08-09T12:37:09.653Z,30.9
2022-08-09T12:38:07.266Z,30.7
2022-08-09T12:39:04.343Z,30.8
2022-08-09T12:40:03.411Z,31
2022-08-09T12:41:02.165Z,31
2022-08-09T12:42:03.620Z,30.7
2022-08-09T12:43:03.251Z,30.5
2022-08-09T12:44:04.531Z,30.7
2022-08-09T12:45:03.206Z,30.8
2022-08-09T12:46:02.983Z,31
2022-08-09T12:47:02.706Z,30.7
2022-08-09T12:48:03.994Z,30.9
2022-08-09T12:49:02.445Z,31
2022-08-09T12:50:04.693Z,31
2022-08-09T12:51:03.777Z,31.2
2022-08-09T12:52:03.694Z,31.1
2022-08-09T12:53:09.805Z,31
2022-08-09T12:54:07.605Z,30.6
2022-08-09T12:56:11.328Z,31.3
2022-08-09T12:56:13.248Z,31
2022-08-09T12:57:04.257Z,31.2
2022-08-09T12:58:02.864Z,30.9
2022-08-09T12:59:02.874Z,30.6
2022-08-09T13:00:03.984Z,30.6
2022-08-09T13:01:04.995Z,30.8
2022-08-09T13:02:03.022Z,31.2
2022-08-09T13:03:05.113Z,31.3
2022-08-09T13:04:03.073Z,31.6
2022-08-09T13:05:03.053Z,31.4
2022-08-09T13:06:14.897Z,31.4
2022-08-09T13:07:04.153Z,31.4
2022-08-09T13:08:03.316Z,31.3
2022-08-09T13:09:03.330Z,31.6
2022-08-09T13:10:08.174Z,32
2022-08-09T13:11:13.479Z,31.8
2022-08-09T13:12:03.389Z,31.7
2022-08-09T13:13:10.369Z,31.6
2022-08-09T13:14:38.115Z,31.4
2022-08-09T13:15:04.085Z,31.6
2022-08-09T13:16:03.454Z,31.7
2022-08-09T13:17:04.949Z,32
2022-08-09T13:18:06.285Z,31.8
2022-08-09T13:19:12.399Z,31.2
2022-08-09T13:20:08.108Z,31.1
2022-08-09T13:22:34.576Z,31.3
2022-08-09T13:22:34.954Z,31.1
2022-08-09T13:24:06.532Z,31.3
2022-08-09T13:24:07.494Z,31.1
2022-08-09T13:25:04.769Z,31
2022-08-09T13:26:04.102Z,30.8
2022-08-09T13:27:04.774Z,30.7
2022-08-09T13:28:04.322Z,31
2022-08-09T13:29:03.928Z,31.1
2022-08-09T13:30:49.681Z,31.1
2022-08-09T13:31:11.675Z,30.9
2022-08-09T13:32:14.592Z,30.9
2022-08-09T13:33:04.385Z,30.9
2022-08-09T13:34:04.358Z,30.8
2022-08-09T13:35:04.485Z,30.9
2022-08-09T13:36:23.999Z,30.9